sensor_id;sensor_type;location;lat;lon;timestamp;P1;durP1;ratioP1;P2;durP2;ratioP2
46377;SDS011;32083;47.360;9.650;2023-02-28T00:00:50;8.82;;;7.30;;
46377;SDS011;32083;47.360;9.650;2023-02-28T00:03:16;7.30;;;6.50;;
46377;SDS011;32083;47.360;9.650;2023-02-28T00:05:44;8.88;;;7.82;;
46377;SDS011;32083;47.360;9.650;2023-02-28T00:08:15;11.27;;;8.00;;
46377;SDS011;32083;47.360;9.650;2023-02-28T00:10:44;8.93;;;7.40;;
46377;SDS011;32083;47.360;9.650;2023-02-28T00:13:15;9.75;;;6.90;;
46377;SDS011;32083;47.360;9.650;2023-02-28T00:15:46;8.15;;;7.05;;
46377;SDS011;32083;47.360;9.650;2023-02-28T00:18:36;7.35;;;6.57;;
46377;SDS011;32083;47.360;9.650;2023-02-28T00:21:27;7.28;;;6.40;;
46377;SDS011;32083;47.360;9.650;2023-02-28T00:23:55;9.77;;;7.97;;
46377;SDS011;32083;47.360;9.650;2023-02-28T00:26:23;9.05;;;7.47;;
46377;SDS011;32083;47.360;9.650;2023-02-28T00:28:53;9.52;;;8.52;;
46377;SDS011;32083;47.360;9.650;2023-02-28T00:31:20;9.15;;;7.88;;
46377;SDS011;32083;47.360;9.650;2023-02-28T00:34:00;9.68;;;7.38;;
46377;SDS011;32083;47.360;9.650;2023-02-28T00:36:28;8.48;;;6.93;;
46377;SDS011;32083;47.360;9.650;2023-02-28T00:39:04;8.68;;;7.03;;
46377;SDS011;32083;47.360;9.650;2023-02-28T00:41:34;7.75;;;6.55;;
46377;SDS011;32083;47.360;9.650;2023-02-28T00:46:40;10.48;;;7.35;;
46377;SDS011;32083;47.360;9.650;2023-02-28T00:51:38;10.45;;;7.32;;
46377;SDS011;32083;47.360;9.650;2023-02-28T00:54:04;8.15;;;6.68;;
46377;SDS011;32083;47.360;9.650;2023-02-28T00:56:32;6.90;;;6.20;;
46377;SDS011;32083;47.360;9.650;2023-02-28T00:58:58;8.63;;;7.57;;
46377;SDS011;32083;47.360;9.650;2023-02-28T01:01:24;7.72;;;6.90;;
46377;SDS011;32083;47.360;9.650;2023-02-28T01:03:55;8.48;;;6.75;;
46377;SDS011;32083;47.360;9.650;2023-02-28T01:06:30;10.05;;;7.25;;
46377;SDS011;32083;47.360;9.650;2023-02-28T01:08:57;8.25;;;7.15;;
46377;SDS011;32083;47.360;9.650;2023-02-28T01:11:24;10.20;;;7.07;;
46377;SDS011;32083;47.360;9.650;2023-02-28T01:13:51;7.65;;;6.82;;
46377;SDS011;32083;47.360;9.650;2023-02-28T01:16:50;8.52;;;6.97;;
46377;SDS011;32083;47.360;9.650;2023-02-28T01:19:16;9.23;;;6.93;;
46377;SDS011;32083;47.360;9.650;2023-02-28T01:21:45;8.75;;;7.00;;
46377;SDS011;32083;47.360;9.650;2023-02-28T01:24:15;10.25;;;6.78;;
46377;SDS011;32083;47.360;9.650;2023-02-28T01:26:49;9.30;;;7.68;;
46377;SDS011;32083;47.360;9.650;2023-02-28T01:29:36;8.57;;;7.18;;
46377;SDS011;32083;47.360;9.650;2023-02-28T01:32:06;9.98;;;7.47;;
46377;SDS011;32083;47.360;9.650;2023-02-28T01:34:58;8.45;;;6.72;;
46377;SDS011;32083;47.360;9.650;2023-02-28T01:37:27;8.75;;;7.43;;
46377;SDS011;32083;47.360;9.650;2023-02-28T01:39:54;10.15;;;7.22;;
46377;SDS011;32083;47.360;9.650;2023-02-28T01:42:20;12.60;;;8.15;;
46377;SDS011;32083;47.360;9.650;2023-02-28T01:47:42;8.52;;;7.10;;
46377;SDS011;32083;47.360;9.650;2023-02-28T01:50:18;8.07;;;7.05;;
46377;SDS011;32083;47.360;9.650;2023-02-28T01:53:08;8.50;;;7.35;;
46377;SDS011;32083;47.360;9.650;2023-02-28T01:55:42;10.05;;;7.95;;
46377;SDS011;32083;47.360;9.650;2023-02-28T01:58:13;8.65;;;7.57;;
46377;SDS011;32083;47.360;9.650;2023-02-28T02:00:43;7.80;;;6.55;;
46377;SDS011;32083;47.360;9.650;2023-02-28T02:03:57;9.27;;;7.45;;
46377;SDS011;32083;47.360;9.650;2023-02-28T02:06:56;8.15;;;7.35;;
46377;SDS011;32083;47.360;9.650;2023-02-28T02:09:27;9.00;;;7.78;;
46377;SDS011;32083;47.360;9.650;2023-02-28T02:12:17;10.45;;;7.60;;
46377;SDS011;32083;47.360;9.650;2023-02-28T02:15:12;10.23;;;7.53;;
46377;SDS011;32083;47.360;9.650;2023-02-28T02:17:51;10.20;;;7.90;;
46377;SDS011;32083;47.360;9.650;2023-02-28T02:29:58;8.88;;;7.90;;
46377;SDS011;32083;47.360;9.650;2023-02-28T02:36:00;10.18;;;7.38;;
46377;SDS011;32083;47.360;9.650;2023-02-28T02:41:06;10.18;;;8.15;;
46377;SDS011;32083;47.360;9.650;2023-02-28T02:43:56;9.93;;;7.97;;
46377;SDS011;32083;47.360;9.650;2023-02-28T02:46:39;9.63;;;8.57;;
46377;SDS011;32083;47.360;9.650;2023-02-28T02:49:15;8.23;;;6.82;;
46377;SDS011;32083;47.360;9.650;2023-02-28T02:51:50;10.02;;;7.55;;
46377;SDS011;32083;47.360;9.650;2023-02-28T02:54:21;11.00;;;8.07;;
46377;SDS011;32083;47.360;9.650;2023-02-28T02:57:03;11.27;;;8.63;;
46377;SDS011;32083;47.360;9.650;2023-02-28T02:59:40;9.10;;;7.63;;
46377;SDS011;32083;47.360;9.650;2023-02-28T03:02:20;9.00;;;8.02;;
46377;SDS011;32083;47.360;9.650;2023-02-28T03:04:50;12.90;;;8.07;;
46377;SDS011;32083;47.360;9.650;2023-02-28T03:07:21;10.43;;;8.32;;
46377;SDS011;32083;47.360;9.650;2023-02-28T03:09:53;9.75;;;8.75;;
46377;SDS011;32083;47.360;9.650;2023-02-28T03:12:49;9.63;;;7.80;;
46377;SDS011;32083;47.360;9.650;2023-02-28T03:15:32;10.40;;;8.40;;
46377;SDS011;32083;47.360;9.650;2023-02-28T03:18:36;9.15;;;7.88;;
46377;SDS011;32083;47.360;9.650;2023-02-28T03:27:42;9.60;;;8.00;;
46377;SDS011;32083;47.360;9.650;2023-02-28T03:30:58;9.25;;;7.90;;
46377;SDS011;32083;47.360;9.650;2023-02-28T03:33:30;11.02;;;8.38;;
46377;SDS011;32083;47.360;9.650;2023-02-28T03:36:05;9.48;;;7.88;;
46377;SDS011;32083;47.360;9.650;2023-02-28T03:41:19;10.52;;;8.35;;
46377;SDS011;32083;47.360;9.650;2023-02-28T03:44:44;9.93;;;7.93;;
46377;SDS011;32083;47.360;9.650;2023-02-28T03:47:29;11.30;;;8.50;;
46377;SDS011;32083;47.360;9.650;2023-02-28T03:50:27;11.43;;;8.68;;
46377;SDS011;32083;47.360;9.650;2023-02-28T03:53:10;10.43;;;8.82;;
46377;SDS011;32083;47.360;9.650;2023-02-28T03:56:16;13.82;;;10.05;;
46377;SDS011;32083;47.360;9.650;2023-02-28T03:59:00;12.75;;;9.98;;
46377;SDS011;32083;47.360;9.650;2023-02-28T04:01:43;12.32;;;8.88;;
46377;SDS011;32083;47.360;9.650;2023-02-28T04:04:12;13.70;;;9.18;;
46377;SDS011;32083;47.360;9.650;2023-02-28T04:06:41;13.60;;;8.75;;
46377;SDS011;32083;47.360;9.650;2023-02-28T04:09:14;11.15;;;8.43;;
46377;SDS011;32083;47.360;9.650;2023-02-28T04:11:53;11.10;;;8.40;;
46377;SDS011;32083;47.360;9.650;2023-02-28T04:14:23;10.43;;;7.97;;
46377;SDS011;32083;47.360;9.650;2023-02-28T04:16:49;13.52;;;8.68;;
46377;SDS011;32083;47.360;9.650;2023-02-28T04:19:19;10.23;;;8.57;;
46377;SDS011;32083;47.360;9.650;2023-02-28T04:22:00;11.35;;;7.97;;
46377;SDS011;32083;47.360;9.650;2023-02-28T04:24:32;11.05;;;8.85;;
46377;SDS011;32083;47.360;9.650;2023-02-28T04:27:26;9.55;;;8.52;;
46377;SDS011;32083;47.360;9.650;2023-02-28T04:29:53;13.38;;;8.77;;
46377;SDS011;32083;47.360;9.650;2023-02-28T04:32:19;10.05;;;8.57;;
46377;SDS011;32083;47.360;9.650;2023-02-28T04:35:08;12.60;;;8.32;;
46377;SDS011;32083;47.360;9.650;2023-02-28T04:37:43;11.73;;;8.48;;
46377;SDS011;32083;47.360;9.650;2023-02-28T04:40:21;11.20;;;8.13;;
46377;SDS011;32083;47.360;9.650;2023-02-28T04:42:47;12.38;;;9.45;;
46377;SDS011;32083;47.360;9.650;2023-02-28T04:45:21;12.25;;;8.75;;
46377;SDS011;32083;47.360;9.650;2023-02-28T04:47:51;13.95;;;8.98;;
46377;SDS011;32083;47.360;9.650;2023-02-28T04:50:26;10.38;;;9.05;;
46377;SDS011;32083;47.360;9.650;2023-02-28T04:52:56;12.95;;;9.32;;
46377;SDS011;32083;47.360;9.650;2023-02-28T04:55:33;11.90;;;9.07;;
46377;SDS011;32083;47.360;9.650;2023-02-28T04:58:00;10.10;;;8.45;;
46377;SDS011;32083;47.360;9.650;2023-02-28T05:00:40;11.02;;;8.95;;
46377;SDS011;32083;47.360;9.650;2023-02-28T05:03:30;10.75;;;7.93;;
46377;SDS011;32083;47.360;9.650;2023-02-28T05:05:56;12.00;;;8.68;;
46377;SDS011;32083;47.360;9.650;2023-02-28T05:08:25;10.20;;;8.63;;
46377;SDS011;32083;47.360;9.650;2023-02-28T05:10:52;11.18;;;8.55;;
46377;SDS011;32083;47.360;9.650;2023-02-28T05:13:18;10.90;;;8.30;;
46377;SDS011;32083;47.360;9.650;2023-02-28T05:15:45;12.45;;;8.43;;
46377;SDS011;32083;47.360;9.650;2023-02-28T05:18:10;10.57;;;9.38;;
46377;SDS011;32083;47.360;9.650;2023-02-28T05:20:43;9.68;;;8.60;;
46377;SDS011;32083;47.360;9.650;2023-02-28T05:23:31;8.48;;;7.57;;
46377;SDS011;32083;47.360;9.650;2023-02-28T05:26:03;11.05;;;8.73;;
46377;SDS011;32083;47.360;9.650;2023-02-28T05:28:35;28.48;;;12.35;;
46377;SDS011;32083;47.360;9.650;2023-02-28T05:31:05;12.00;;;9.00;;
46377;SDS011;32083;47.360;9.650;2023-02-28T05:33:30;10.50;;;9.15;;
46377;SDS011;32083;47.360;9.650;2023-02-28T05:36:02;14.10;;;11.07;;
46377;SDS011;32083;47.360;9.650;2023-02-28T05:38:32;12.18;;;9.88;;
46377;SDS011;32083;47.360;9.650;2023-02-28T05:41:43;13.13;;;10.63;;
46377;SDS011;32083;47.360;9.650;2023-02-28T05:44:09;12.15;;;8.40;;
46377;SDS011;32083;47.360;9.650;2023-02-28T05:46:36;11.40;;;9.63;;
46377;SDS011;32083;47.360;9.650;2023-02-28T05:49:02;10.30;;;8.98;;
46377;SDS011;32083;47.360;9.650;2023-02-28T05:51:28;11.98;;;9.18;;
46377;SDS011;32083;47.360;9.650;2023-02-28T05:53:54;13.00;;;9.05;;
46377;SDS011;32083;47.360;9.650;2023-02-28T05:56:23;12.02;;;9.30;;
46377;SDS011;32083;47.360;9.650;2023-02-28T05:58:49;13.00;;;10.35;;
46377;SDS011;32083;47.360;9.650;2023-02-28T06:01:20;12.95;;;9.00;;
46377;SDS011;32083;47.360;9.650;2023-02-28T06:03:46;13.65;;;10.00;;
46377;SDS011;32083;47.360;9.650;2023-02-28T06:06:12;13.25;;;9.55;;
46377;SDS011;32083;47.360;9.650;2023-02-28T06:08:38;10.52;;;9.27;;
46377;SDS011;32083;47.360;9.650;2023-02-28T06:11:04;9.63;;;8.20;;
46377;SDS011;32083;47.360;9.650;2023-02-28T06:13:31;11.20;;;8.77;;
46377;SDS011;32083;47.360;9.650;2023-02-28T06:16:00;13.00;;;10.35;;
46377;SDS011;32083;47.360;9.650;2023-02-28T06:18:26;13.77;;;9.02;;
46377;SDS011;32083;47.360;9.650;2023-02-28T06:20:55;12.57;;;8.77;;
46377;SDS011;32083;47.360;9.650;2023-02-28T06:23:21;11.10;;;8.95;;
46377;SDS011;32083;47.360;9.650;2023-02-28T06:25:47;11.40;;;9.43;;
46377;SDS011;32083;47.360;9.650;2023-02-28T06:28:14;13.52;;;11.80;;
46377;SDS011;32083;47.360;9.650;2023-02-28T06:30:40;12.10;;;8.25;;
46377;SDS011;32083;47.360;9.650;2023-02-28T06:33:06;11.90;;;8.60;;
46377;SDS011;32083;47.360;9.650;2023-02-28T06:35:32;11.20;;;9.05;;
46377;SDS011;32083;47.360;9.650;2023-02-28T06:37:58;12.82;;;8.93;;
46377;SDS011;32083;47.360;9.650;2023-02-28T06:40:24;12.90;;;8.80;;
46377;SDS011;32083;47.360;9.650;2023-02-28T06:42:51;11.32;;;8.02;;
46377;SDS011;32083;47.360;9.650;2023-02-28T06:45:17;12.43;;;8.60;;
46377;SDS011;32083;47.360;9.650;2023-02-28T06:47:43;11.25;;;8.00;;
46377;SDS011;32083;47.360;9.650;2023-02-28T06:50:11;10.00;;;8.20;;
46377;SDS011;32083;47.360;9.650;2023-02-28T06:52:38;12.85;;;9.57;;
46377;SDS011;32083;47.360;9.650;2023-02-28T06:55:04;15.35;;;9.65;;
46377;SDS011;32083;47.360;9.650;2023-02-28T06:57:32;10.00;;;8.18;;
46377;SDS011;32083;47.360;9.650;2023-02-28T06:59:59;10.45;;;8.75;;
46377;SDS011;32083;47.360;9.650;2023-02-28T07:02:28;12.85;;;9.52;;
46377;SDS011;32083;47.360;9.650;2023-02-28T07:04:54;11.02;;;8.27;;
46377;SDS011;32083;47.360;9.650;2023-02-28T07:07:20;12.25;;;8.80;;
46377;SDS011;32083;47.360;9.650;2023-02-28T07:09:46;11.25;;;8.82;;
46377;SDS011;32083;47.360;9.650;2023-02-28T07:12:12;12.30;;;9.10;;
46377;SDS011;32083;47.360;9.650;2023-02-28T07:14:38;12.32;;;8.32;;
46377;SDS011;32083;47.360;9.650;2023-02-28T07:17:06;13.48;;;9.60;;
46377;SDS011;32083;47.360;9.650;2023-02-28T07:19:33;12.05;;;8.57;;
46377;SDS011;32083;47.360;9.650;2023-02-28T07:21:59;10.85;;;8.40;;
46377;SDS011;32083;47.360;9.650;2023-02-28T07:24:26;21.45;;;9.57;;
46377;SDS011;32083;47.360;9.650;2023-02-28T07:26:53;11.57;;;8.95;;
46377;SDS011;32083;47.360;9.650;2023-02-28T07:29:19;11.85;;;8.90;;
46377;SDS011;32083;47.360;9.650;2023-02-28T07:31:45;12.98;;;10.50;;
46377;SDS011;32083;47.360;9.650;2023-02-28T07:34:12;12.98;;;9.05;;
46377;SDS011;32083;47.360;9.650;2023-02-28T07:36:39;12.48;;;10.48;;
46377;SDS011;32083;47.360;9.650;2023-02-28T07:39:05;12.77;;;10.07;;
46377;SDS011;32083;47.360;9.650;2023-02-28T07:41:31;17.13;;;9.95;;
46377;SDS011;32083;47.360;9.650;2023-02-28T07:43:59;11.60;;;9.57;;
46377;SDS011;32083;47.360;9.650;2023-02-28T07:46:25;15.57;;;10.98;;
46377;SDS011;32083;47.360;9.650;2023-02-28T07:48:52;12.85;;;9.57;;
46377;SDS011;32083;47.360;9.650;2023-02-28T07:51:19;11.13;;;9.95;;
46377;SDS011;32083;47.360;9.650;2023-02-28T07:53:47;11.75;;;9.25;;
46377;SDS011;32083;47.360;9.650;2023-02-28T07:56:13;22.73;;;11.02;;
46377;SDS011;32083;47.360;9.650;2023-02-28T07:58:39;11.85;;;9.05;;
46377;SDS011;32083;47.360;9.650;2023-02-28T08:01:06;11.43;;;8.93;;
46377;SDS011;32083;47.360;9.650;2023-02-28T08:03:34;14.93;;;11.15;;
46377;SDS011;32083;47.360;9.650;2023-02-28T08:06:00;15.48;;;10.15;;
46377;SDS011;32083;47.360;9.650;2023-02-28T08:08:28;12.13;;;9.93;;
46377;SDS011;32083;47.360;9.650;2023-02-28T08:11:00;14.85;;;9.85;;
46377;SDS011;32083;47.360;9.650;2023-02-28T08:13:28;13.40;;;10.15;;
46377;SDS011;32083;47.360;9.650;2023-02-28T08:15:55;13.38;;;11.13;;
46377;SDS011;32083;47.360;9.650;2023-02-28T08:18:22;13.30;;;10.60;;
46377;SDS011;32083;47.360;9.650;2023-02-28T08:20:48;15.43;;;10.10;;
46377;SDS011;32083;47.360;9.650;2023-02-28T08:23:14;12.15;;;10.60;;
46377;SDS011;32083;47.360;9.650;2023-02-28T08:25:41;14.18;;;9.77;;
46377;SDS011;32083;47.360;9.650;2023-02-28T08:28:07;13.65;;;9.52;;
46377;SDS011;32083;47.360;9.650;2023-02-28T08:30:33;11.57;;;10.25;;
46377;SDS011;32083;47.360;9.650;2023-02-28T08:32:59;14.75;;;9.90;;
46377;SDS011;32083;47.360;9.650;2023-02-28T08:35:26;12.48;;;9.68;;
46377;SDS011;32083;47.360;9.650;2023-02-28T08:37:52;13.05;;;10.07;;
46377;SDS011;32083;47.360;9.650;2023-02-28T08:40:18;12.32;;;9.80;;
46377;SDS011;32083;47.360;9.650;2023-02-28T08:42:45;15.63;;;9.43;;
46377;SDS011;32083;47.360;9.650;2023-02-28T08:45:11;14.63;;;9.45;;
46377;SDS011;32083;47.360;9.650;2023-02-28T08:47:38;15.95;;;9.98;;
46377;SDS011;32083;47.360;9.650;2023-02-28T08:50:05;14.85;;;10.00;;
46377;SDS011;32083;47.360;9.650;2023-02-28T08:52:31;22.48;;;15.65;;
46377;SDS011;32083;47.360;9.650;2023-02-28T08:54:57;21.23;;;10.07;;
46377;SDS011;32083;47.360;9.650;2023-02-28T08:57:24;11.43;;;9.27;;
46377;SDS011;32083;47.360;9.650;2023-02-28T08:59:53;11.48;;;9.10;;
46377;SDS011;32083;47.360;9.650;2023-02-28T09:02:19;11.30;;;8.68;;
46377;SDS011;32083;47.360;9.650;2023-02-28T09:04:45;13.23;;;10.57;;
46377;SDS011;32083;47.360;9.650;2023-02-28T09:07:11;11.82;;;9.98;;
46377;SDS011;32083;47.360;9.650;2023-02-28T09:09:37;12.43;;;9.75;;
46377;SDS011;32083;47.360;9.650;2023-02-28T09:12:19;11.45;;;8.75;;
46377;SDS011;32083;47.360;9.650;2023-02-28T09:14:49;13.35;;;9.40;;
46377;SDS011;32083;47.360;9.650;2023-02-28T09:17:16;13.25;;;9.52;;
46377;SDS011;32083;47.360;9.650;2023-02-28T09:19:42;12.52;;;10.25;;
46377;SDS011;32083;47.360;9.650;2023-02-28T09:22:09;11.95;;;9.38;;
46377;SDS011;32083;47.360;9.650;2023-02-28T09:24:36;13.38;;;9.80;;
46377;SDS011;32083;47.360;9.650;2023-02-28T09:27:02;12.98;;;9.95;;
46377;SDS011;32083;47.360;9.650;2023-02-28T09:29:29;16.88;;;10.18;;
46377;SDS011;32083;47.360;9.650;2023-02-28T09:31:56;12.77;;;10.23;;
46377;SDS011;32083;47.360;9.650;2023-02-28T09:34:26;12.73;;;9.65;;
46377;SDS011;32083;47.360;9.650;2023-02-28T09:36:52;11.63;;;9.45;;
46377;SDS011;32083;47.360;9.650;2023-02-28T09:39:20;11.27;;;8.85;;
46377;SDS011;32083;47.360;9.650;2023-02-28T09:41:48;12.88;;;10.13;;
46377;SDS011;32083;47.360;9.650;2023-02-28T09:44:36;13.50;;;9.70;;
46377;SDS011;32083;47.360;9.650;2023-02-28T09:47:17;10.75;;;8.32;;
46377;SDS011;32083;47.360;9.650;2023-02-28T09:49:53;12.35;;;9.73;;
46377;SDS011;32083;47.360;9.650;2023-02-28T09:52:30;10.02;;;8.05;;
46377;SDS011;32083;47.360;9.650;2023-02-28T09:57:43;9.70;;;8.43;;
46377;SDS011;32083;47.360;9.650;2023-02-28T10:05:37;11.73;;;9.05;;
46377;SDS011;32083;47.360;9.650;2023-02-28T10:08:17;11.82;;;8.57;;
46377;SDS011;32083;47.360;9.650;2023-02-28T10:11:07;12.48;;;9.43;;
46377;SDS011;32083;47.360;9.650;2023-02-28T10:13:49;12.98;;;9.35;;
46377;SDS011;32083;47.360;9.650;2023-02-28T10:19:16;13.15;;;9.23;;
46377;SDS011;32083;47.360;9.650;2023-02-28T10:27:18;12.90;;;10.02;;
46377;SDS011;32083;47.360;9.650;2023-02-28T10:29:56;20.17;;;13.07;;
46377;SDS011;32083;47.360;9.650;2023-02-28T10:32:25;20.77;;;14.55;;
46377;SDS011;32083;47.360;9.650;2023-02-28T10:37:41;11.55;;;9.48;;
46377;SDS011;32083;47.360;9.650;2023-02-28T10:42:55;14.55;;;10.27;;
46377;SDS011;32083;47.360;9.650;2023-02-28T10:45:24;13.07;;;10.52;;
46377;SDS011;32083;47.360;9.650;2023-02-28T11:15:35;13.25;;;11.70;;
46377;SDS011;32083;47.360;9.650;2023-02-28T11:18:17;13.68;;;10.35;;
46377;SDS011;32083;47.360;9.650;2023-02-28T11:20:57;14.13;;;10.85;;
46377;SDS011;32083;47.360;9.650;2023-02-28T11:23:26;12.95;;;11.00;;
46377;SDS011;32083;47.360;9.650;2023-02-28T11:25:55;13.80;;;11.07;;
46377;SDS011;32083;47.360;9.650;2023-02-28T11:31:15;13.15;;;11.13;;
46377;SDS011;32083;47.360;9.650;2023-02-28T11:36:27;12.18;;;9.70;;
46377;SDS011;32083;47.360;9.650;2023-02-28T11:39:08;12.68;;;10.98;;
46377;SDS011;32083;47.360;9.650;2023-02-28T11:41:59;11.90;;;10.07;;
46377;SDS011;32083;47.360;9.650;2023-02-28T11:44:36;13.68;;;9.90;;
46377;SDS011;32083;47.360;9.650;2023-02-28T11:50:35;21.55;;;11.60;;
46377;SDS011;32083;47.360;9.650;2023-02-28T11:53:17;13.55;;;11.13;;
46377;SDS011;32083;47.360;9.650;2023-02-28T11:58:33;12.93;;;11.30;;
46377;SDS011;32083;47.360;9.650;2023-02-28T12:07:03;14.05;;;10.85;;
46377;SDS011;32083;47.360;9.650;2023-02-28T12:15:36;13.57;;;10.73;;
46377;SDS011;32083;47.360;9.650;2023-02-28T12:18:26;16.85;;;13.13;;
46377;SDS011;32083;47.360;9.650;2023-02-28T12:21:08;12.75;;;10.40;;
46377;SDS011;32083;47.360;9.650;2023-02-28T12:26:44;12.15;;;10.48;;
46377;SDS011;32083;47.360;9.650;2023-02-28T12:31:53;18.98;;;11.13;;
46377;SDS011;32083;47.360;9.650;2023-02-28T12:34:35;13.07;;;11.48;;
46377;SDS011;32083;47.360;9.650;2023-02-28T12:37:06;14.65;;;11.82;;
46377;SDS011;32083;47.360;9.650;2023-02-28T12:39:37;13.00;;;10.25;;
46377;SDS011;32083;47.360;9.650;2023-02-28T12:42:28;12.88;;;11.02;;
46377;SDS011;32083;47.360;9.650;2023-02-28T12:44:58;13.40;;;11.30;;
46377;SDS011;32083;47.360;9.650;2023-02-28T12:47:28;13.20;;;10.30;;
46377;SDS011;32083;47.360;9.650;2023-02-28T12:49:59;15.52;;;11.15;;
46377;SDS011;32083;47.360;9.650;2023-02-28T12:55:15;13.85;;;11.45;;
46377;SDS011;32083;47.360;9.650;2023-02-28T13:00:35;14.45;;;10.82;;
46377;SDS011;32083;47.360;9.650;2023-02-28T13:11:31;11.45;;;10.07;;
46377;SDS011;32083;47.360;9.650;2023-02-28T13:16:57;11.68;;;10.40;;
46377;SDS011;32083;47.360;9.650;2023-02-28T13:19:24;12.35;;;10.95;;
46377;SDS011;32083;47.360;9.650;2023-02-28T13:21:52;14.55;;;10.00;;
46377;SDS011;32083;47.360;9.650;2023-02-28T13:27:21;15.20;;;11.27;;
46377;SDS011;32083;47.360;9.650;2023-02-28T13:29:51;12.57;;;10.20;;
46377;SDS011;32083;47.360;9.650;2023-02-28T13:32:18;11.60;;;9.50;;
46377;SDS011;32083;47.360;9.650;2023-02-28T13:47:36;16.92;;;10.18;;
46377;SDS011;32083;47.360;9.650;2023-02-28T13:50:14;14.90;;;10.77;;
46377;SDS011;32083;47.360;9.650;2023-02-28T14:03:46;12.48;;;10.20;;
46377;SDS011;32083;47.360;9.650;2023-02-28T14:18:02;15.45;;;12.15;;
46377;SDS011;32083;47.360;9.650;2023-02-28T14:20:47;15.90;;;11.00;;
46377;SDS011;32083;47.360;9.650;2023-02-28T14:23:20;12.70;;;10.90;;
46377;SDS011;32083;47.360;9.650;2023-02-28T14:31:22;15.65;;;10.73;;
46377;SDS011;32083;47.360;9.650;2023-02-28T14:34:02;11.98;;;10.70;;
46377;SDS011;32083;47.360;9.650;2023-02-28T14:36:39;13.25;;;11.02;;
46377;SDS011;32083;47.360;9.650;2023-02-28T14:39:14;13.05;;;10.30;;
46377;SDS011;32083;47.360;9.650;2023-02-28T14:41:43;15.80;;;11.05;;
46377;SDS011;32083;47.360;9.650;2023-02-28T14:46:55;15.30;;;11.98;;
46377;SDS011;32083;47.360;9.650;2023-02-28T14:49:32;12.50;;;11.05;;
46377;SDS011;32083;47.360;9.650;2023-02-28T14:52:20;13.10;;;11.57;;
46377;SDS011;32083;47.360;9.650;2023-02-28T14:54:53;14.85;;;11.73;;
46377;SDS011;32083;47.360;9.650;2023-02-28T14:57:22;14.32;;;12.82;;
46377;SDS011;32083;47.360;9.650;2023-02-28T15:00:00;13.40;;;11.40;;
46377;SDS011;32083;47.360;9.650;2023-02-28T15:02:35;13.75;;;11.60;;
46377;SDS011;32083;47.360;9.650;2023-02-28T15:07:35;15.70;;;12.45;;
46377;SDS011;32083;47.360;9.650;2023-02-28T15:10:08;14.85;;;11.45;;
46377;SDS011;32083;47.360;9.650;2023-02-28T15:15:24;14.68;;;12.30;;
46377;SDS011;32083;47.360;9.650;2023-02-28T15:18:03;14.45;;;11.88;;
46377;SDS011;32083;47.360;9.650;2023-02-28T15:20:32;15.10;;;11.88;;
46377;SDS011;32083;47.360;9.650;2023-02-28T15:22:59;17.00;;;12.45;;
46377;SDS011;32083;47.360;9.650;2023-02-28T15:25:26;15.27;;;12.25;;
46377;SDS011;32083;47.360;9.650;2023-02-28T15:27:53;19.50;;;13.43;;
46377;SDS011;32083;47.360;9.650;2023-02-28T15:30:26;16.52;;;12.70;;
46377;SDS011;32083;47.360;9.650;2023-02-28T15:33:02;15.07;;;11.60;;
46377;SDS011;32083;47.360;9.650;2023-02-28T15:37:57;15.65;;;13.77;;
46377;SDS011;32083;47.360;9.650;2023-02-28T15:40:28;18.77;;;14.95;;
46377;SDS011;32083;47.360;9.650;2023-02-28T15:43:00;20.77;;;13.18;;
46377;SDS011;32083;47.360;9.650;2023-02-28T15:45:32;18.65;;;14.73;;
46377;SDS011;32083;47.360;9.650;2023-02-28T15:48:03;14.48;;;11.93;;
46377;SDS011;32083;47.360;9.650;2023-02-28T15:50:31;18.45;;;13.02;;
46377;SDS011;32083;47.360;9.650;2023-02-28T15:52:57;15.02;;;12.48;;
46377;SDS011;32083;47.360;9.650;2023-02-28T15:55:28;16.17;;;13.20;;
46377;SDS011;32083;47.360;9.650;2023-02-28T15:57:56;19.48;;;12.90;;
46377;SDS011;32083;47.360;9.650;2023-02-28T16:00:26;15.93;;;13.38;;
46377;SDS011;32083;47.360;9.650;2023-02-28T16:02:54;17.38;;;13.30;;
46377;SDS011;32083;47.360;9.650;2023-02-28T16:05:21;15.57;;;13.07;;
46377;SDS011;32083;47.360;9.650;2023-02-28T16:07:56;17.70;;;12.88;;
46377;SDS011;32083;47.360;9.650;2023-02-28T16:10:25;18.45;;;13.43;;
46377;SDS011;32083;47.360;9.650;2023-02-28T16:12:53;16.27;;;12.80;;
46377;SDS011;32083;47.360;9.650;2023-02-28T16:15:25;15.00;;;11.77;;
46377;SDS011;32083;47.360;9.650;2023-02-28T16:17:53;16.63;;;11.98;;
46377;SDS011;32083;47.360;9.650;2023-02-28T16:20:25;16.88;;;12.05;;
46377;SDS011;32083;47.360;9.650;2023-02-28T16:22:52;18.48;;;13.80;;
46377;SDS011;32083;47.360;9.650;2023-02-28T16:25:20;15.75;;;12.88;;
46377;SDS011;32083;47.360;9.650;2023-02-28T16:27:51;17.88;;;13.02;;
46377;SDS011;32083;47.360;9.650;2023-02-28T16:30:20;16.67;;;13.40;;
46377;SDS011;32083;47.360;9.650;2023-02-28T16:32:49;15.10;;;13.40;;
46377;SDS011;32083;47.360;9.650;2023-02-28T16:35:16;17.60;;;12.73;;
46377;SDS011;32083;47.360;9.650;2023-02-28T16:37:43;17.35;;;12.30;;
46377;SDS011;32083;47.360;9.650;2023-02-28T16:40:33;18.27;;;14.63;;
46377;SDS011;32083;47.360;9.650;2023-02-28T16:46:38;17.95;;;12.80;;
46377;SDS011;32083;47.360;9.650;2023-02-28T16:59:34;17.73;;;13.45;;
46377;SDS011;32083;47.360;9.650;2023-02-28T17:07:48;18.33;;;13.50;;
46377;SDS011;32083;47.360;9.650;2023-02-28T17:10:44;17.25;;;13.70;;
46377;SDS011;32083;47.360;9.650;2023-02-28T17:13:35;20.02;;;14.35;;
46377;SDS011;32083;47.360;9.650;2023-02-28T17:16:27;18.02;;;13.85;;
46377;SDS011;32083;47.360;9.650;2023-02-28T17:19:25;19.83;;;14.70;;
46377;SDS011;32083;47.360;9.650;2023-02-28T17:29:40;22.58;;;16.95;;
46377;SDS011;32083;47.360;9.650;2023-02-28T17:32:44;19.83;;;13.73;;
46377;SDS011;32083;47.360;9.650;2023-02-28T17:35:53;20.52;;;14.55;;
46377;SDS011;32083;47.360;9.650;2023-02-28T17:38:49;18.42;;;14.35;;
46377;SDS011;32083;47.360;9.650;2023-02-28T17:55:53;21.08;;;14.45;;
46377;SDS011;32083;47.360;9.650;2023-02-28T17:58:52;24.52;;;14.68;;
46377;SDS011;32083;47.360;9.650;2023-02-28T18:01:19;19.05;;;14.15;;
46377;SDS011;32083;47.360;9.650;2023-02-28T18:03:47;20.48;;;15.52;;
46377;SDS011;32083;47.360;9.650;2023-02-28T18:06:22;21.20;;;14.98;;
46377;SDS011;32083;47.360;9.650;2023-02-28T18:09:12;20.05;;;14.93;;
46377;SDS011;32083;47.360;9.650;2023-02-28T18:11:39;19.38;;;14.93;;
46377;SDS011;32083;47.360;9.650;2023-02-28T18:14:10;21.15;;;16.05;;
46377;SDS011;32083;47.360;9.650;2023-02-28T18:16:36;21.85;;;15.90;;
46377;SDS011;32083;47.360;9.650;2023-02-28T18:19:03;19.83;;;15.30;;
46377;SDS011;32083;47.360;9.650;2023-02-28T18:21:39;17.20;;;13.73;;
46377;SDS011;32083;47.360;9.650;2023-02-28T18:24:08;19.88;;;15.02;;
46377;SDS011;32083;47.360;9.650;2023-02-28T18:26:35;19.00;;;14.45;;
46377;SDS011;32083;47.360;9.650;2023-02-28T18:29:05;18.48;;;14.35;;
46377;SDS011;32083;47.360;9.650;2023-02-28T18:31:32;21.15;;;14.50;;
46377;SDS011;32083;47.360;9.650;2023-02-28T18:33:58;21.63;;;17.10;;
46377;SDS011;32083;47.360;9.650;2023-02-28T18:36:25;21.67;;;15.45;;
46377;SDS011;32083;47.360;9.650;2023-02-28T18:38:54;18.95;;;15.20;;
46377;SDS011;32083;47.360;9.650;2023-02-28T18:41:20;19.45;;;15.27;;
46377;SDS011;32083;47.360;9.650;2023-02-28T18:43:47;25.17;;;17.27;;
46377;SDS011;32083;47.360;9.650;2023-02-28T18:46:14;22.70;;;16.65;;
46377;SDS011;32083;47.360;9.650;2023-02-28T18:48:42;22.77;;;18.08;;